createdAt,value
2022-08-01T00:01:59.316Z,23.92
2022-08-01T00:04:25.896Z,23.76
2022-08-01T00:06:52.394Z,23.82
2022-08-01T00:09:24.082Z,23.68
2022-08-01T00:11:59.684Z,23.49
2022-08-01T00:14:33.170Z,23.47
2022-08-01T00:17:05.150Z,23.38
2022-08-01T00:19:32.080Z,23.41
2022-08-01T00:21:58.656Z,23.43
2022-08-01T00:24:25.137Z,23.44
2022-08-01T00:26:51.625Z,23.55
2022-08-01T00:30:01.119Z,23.57
2022-08-01T00:32:05.214Z,23.58
2022-08-01T00:34:31.917Z,23.62
2022-08-01T00:36:58.374Z,23.58
2022-08-01T00:39:24.938Z,23.62
2022-08-01T00:42:01.663Z,23.54
2022-08-01T00:44:28.462Z,23.38
2022-08-01T00:46:54.978Z,23.24
2022-08-01T00:49:21.640Z,23.09
2022-08-01T00:51:48.265Z,22.92
2022-08-01T00:54:16.737Z,22.85
2022-08-01T00:56:43.817Z,22.76
2022-08-01T00:59:12.087Z,22.84
2022-08-01T01:01:41.147Z,22.86
2022-08-01T01:04:13.834Z,23.02
2022-08-01T01:07:05.960Z,23.07
2022-08-01T01:09:50.774Z,23.03
2022-08-01T01:12:37.390Z,22.93
2022-08-01T01:15:08.057Z,23.08
2022-08-01T01:18:07.090Z,23.11
2022-08-01T01:20:43.472Z,23.07
2022-08-01T01:23:12.770Z,22.93
2022-08-01T01:25:52.342Z,22.86
2022-08-01T01:28:25.000Z,22.80
2022-08-01T01:30:54.442Z,22.68
2022-08-01T01:33:23.724Z,22.56
2022-08-01T01:35:57.600Z,22.54
2022-08-01T01:38:33.106Z,22.56
2022-08-01T01:41:00.975Z,22.74
2022-08-01T01:43:33.764Z,22.77
2022-08-01T01:46:02.286Z,22.75
2022-08-01T01:48:29.916Z,22.69
2022-08-01T01:50:58.159Z,22.75
2022-08-01T01:53:25.982Z,22.63
2022-08-01T01:55:55.542Z,22.42
2022-08-01T01:58:23.832Z,22.34
2022-08-01T02:00:52.953Z,22.37
2022-08-01T02:03:21.654Z,22.35
2022-08-01T02:05:49.574Z,22.42
2022-08-01T02:08:18.245Z,22.50
2022-08-01T02:11:06.438Z,22.58
2022-08-01T02:13:35.338Z,22.67
2022-08-01T02:16:03.970Z,22.60
2022-08-01T02:18:31.138Z,22.68
2022-08-01T02:21:00.009Z,22.77
2022-08-01T02:23:31.625Z,22.74
2022-08-01T02:26:09.596Z,22.57
2022-08-01T02:28:44.743Z,22.61
2022-08-01T02:31:15.408Z,22.64
2022-08-01T02:33:44.061Z,22.63
2022-08-01T02:36:30.554Z,22.72
2022-08-01T02:39:01.541Z,22.74
2022-08-01T02:41:31.065Z,22.70
2022-08-01T02:44:02.667Z,22.54
2022-08-01T02:46:36.162Z,22.41
2022-08-01T02:49:06.036Z,22.42
2022-08-01T02:51:34.354Z,22.35
2022-08-01T02:54:03.691Z,22.34
2022-08-01T02:56:38.198Z,22.43
2022-08-01T02:59:12.494Z,22.37
2022-08-01T03:01:44.144Z,22.38
2022-08-01T03:04:11.800Z,22.36
2022-08-01T03:06:39.678Z,22.28
2022-08-01T03:09:09.429Z,22.18
2022-08-01T03:11:40.801Z,22.09
2022-08-01T03:14:10.079Z,22.03
2022-08-01T03:16:40.030Z,21.95
2022-08-01T03:19:09.583Z,21.87
2022-08-01T03:21:38.163Z,21.91
2022-08-01T03:24:07.468Z,21.92
2022-08-01T03:26:36.717Z,21.99
2022-08-01T03:29:10.755Z,22.03
2022-08-01T03:31:39.272Z,22.04
2022-08-01T03:34:07.046Z,22.23
2022-08-01T03:36:38.189Z,22.22
2022-08-01T03:39:08.312Z,22.16
2022-08-01T03:41:40.543Z,22.00
2022-08-01T03:44:14.324Z,21.90
2022-08-01T03:46:44.719Z,22.01
2022-08-01T03:49:19.800Z,22.03
2022-08-01T03:51:50.445Z,22.04
2022-08-01T03:54:17.433Z,22.02
2022-08-01T03:56:45.753Z,21.93
2022-08-01T03:59:13.056Z,21.94
2022-08-01T04:01:40.134Z,21.98
2022-08-01T04:04:07.181Z,22.12
2022-08-01T04:06:33.668Z,22.12
2022-08-01T04:09:00.512Z,22.06
2022-08-01T04:11:28.664Z,21.89
2022-08-01T04:13:56.282Z,21.74
2022-08-01T04:16:24.337Z,21.75
2022-08-01T04:18:51.290Z,21.68
2022-08-01T04:21:24.547Z,21.66
2022-08-01T04:23:53.903Z,21.62
2022-08-01T04:26:22.833Z,21.54
2022-08-01T04:28:51.021Z,21.62
2022-08-01T04:31:19.659Z,21.72
2022-08-01T04:33:50.680Z,21.66
2022-08-01T04:36:20.669Z,21.67
2022-08-01T04:38:51.598Z,21.77
2022-08-01T04:41:19.625Z,21.90
2022-08-01T04:43:46.170Z,21.89
2022-08-01T04:46:14.188Z,21.82
2022-08-01T04:48:41.524Z,21.68
2022-08-01T04:51:16.341Z,21.65
2022-08-01T04:53:43.990Z,21.69
2022-08-01T04:56:10.577Z,21.83
2022-08-01T04:58:37.051Z,21.93
2022-08-01T05:01:03.579Z,22.06
2022-08-01T05:03:30.077Z,22.23
2022-08-01T05:05:56.546Z,22.47
2022-08-01T05:08:22.998Z,22.77
2022-08-01T05:10:49.532Z,23.05
2022-08-01T05:13:16.500Z,22.93
2022-08-01T05:15:43.147Z,23.10
2022-08-01T05:18:09.725Z,23.19
2022-08-01T05:20:36.761Z,23.37
2022-08-01T05:23:03.543Z,23.42
2022-08-01T05:25:56.431Z,23.47
2022-08-01T05:28:18.925Z,23.53
2022-08-01T05:30:46.019Z,23.73
2022-08-01T05:33:12.510Z,23.83
2022-08-01T05:35:49.008Z,23.82
2022-08-01T05:38:16.108Z,23.63
2022-08-01T05:40:42.620Z,23.63
2022-08-01T05:43:09.085Z,23.66
2022-08-01T05:45:35.582Z,23.71
2022-08-01T05:48:02.061Z,23.84
2022-08-01T05:50:28.580Z,23.86
2022-08-01T05:52:55.129Z,23.81
2022-08-01T05:55:21.612Z,23.77
2022-08-01T05:57:48.070Z,23.70
2022-08-01T06:00:16.380Z,23.53
2022-08-01T06:02:44.086Z,23.45
2022-08-01T06:05:13.253Z,23.45
2022-08-01T06:07:41.123Z,23.52
2022-08-01T06:10:08.673Z,23.46
2022-08-01T06:12:36.058Z,23.50
2022-08-01T06:15:03.951Z,23.42
2022-08-01T06:17:30.510Z,23.80
2022-08-01T06:19:57.243Z,24.16
2022-08-01T06:22:23.685Z,24.24
2022-08-01T06:24:50.981Z,24.36
2022-08-01T06:27:22.377Z,24.23
2022-08-01T06:29:53.276Z,24.01
2022-08-01T06:32:26.655Z,24.07
2022-08-01T06:34:54.102Z,24.29
2022-08-01T06:37:20.767Z,24.16
2022-08-01T06:39:47.669Z,24.43
2022-08-01T06:42:15.812Z,24.49
2022-08-01T06:44:42.550Z,24.52
2022-08-01T06:47:09.139Z,24.70
2022-08-01T06:49:36.013Z,24.68
2022-08-01T06:52:04.290Z,24.83
2022-08-01T06:54:31.193Z,24.83
2022-08-01T06:56:57.664Z,24.79
2022-08-01T06:59:24.132Z,24.68
2022-08-01T07:01:50.588Z,24.81
2022-08-01T07:04:17.074Z,25.02
2022-08-01T07:06:43.561Z,25.11
2022-08-01T07:09:14.137Z,25.12
2022-08-01T07:11:41.247Z,25.33
2022-08-01T07:14:07.821Z,25.19
2022-08-01T07:16:34.310Z,25.33
2022-08-01T07:19:00.754Z,25.40
2022-08-01T07:21:39.303Z,25.46
2022-08-01T07:24:12.904Z,25.53
2022-08-01T07:26:52.516Z,25.71
2022-08-01T07:29:21.621Z,25.82
2022-08-01T07:31:48.092Z,25.79
2022-08-01T07:34:14.584Z,25.82
2022-08-01T07:36:41.030Z,25.91
2022-08-01T07:39:07.543Z,26.00
2022-08-01T07:41:53.429Z,26.04
2022-08-01T07:44:20.580Z,26.16
2022-08-01T07:46:47.104Z,26.23
2022-08-01T07:49:13.729Z,26.32
2022-08-01T07:51:40.212Z,26.31
2022-08-01T07:54:06.715Z,26.36
2022-08-01T07:56:33.169Z,26.40
2022-08-01T07:58:59.685Z,26.46
2022-08-01T08:01:26.244Z,26.39
2022-08-01T08:03:52.790Z,26.38
2022-08-01T08:06:19.260Z,26.46
2022-08-01T08:08:45.737Z,26.45
2022-08-01T08:11:12.238Z,26.50
2022-08-01T08:13:38.672Z,26.67
2022-08-01T08:16:05.115Z,26.69
2022-08-01T08:18:31.687Z,26.89
2022-08-01T08:20:58.216Z,27.04
2022-08-01T08:23:44.133Z,27.05
2022-08-01T08:26:13.745Z,27.09
2022-08-01T08:28:40.813Z,27.13
2022-08-01T08:31:24.886Z,27.30
2022-08-01T08:33:52.721Z,27.46
2022-08-01T08:36:19.309Z,27.65
2022-08-01T08:38:45.806Z,27.77
2022-08-01T08:41:15.062Z,27.86
2022-08-01T08:43:43.559Z,27.98
2022-08-01T08:46:14.658Z,28.26
2022-08-01T08:48:42.790Z,28.37
2022-08-01T08:51:12.382Z,28.31
2022-08-01T08:53:44.831Z,28.36
2022-08-01T08:56:14.319Z,28.36
2022-08-01T08:58:49.822Z,28.40
2022-08-01T09:01:17.673Z,28.49
2022-08-01T09:03:49.594Z,28.60
2022-08-01T09:06:16.142Z,28.75
2022-08-01T09:08:42.636Z,28.89
2022-08-01T09:11:09.249Z,29.04
2022-08-01T09:13:35.723Z,29.16
2022-08-01T09:16:02.333Z,29.37
2022-08-01T09:18:33.144Z,29.48
2022-08-01T09:21:10.145Z,29.55
2022-08-01T09:23:54.061Z,29.63
2022-08-01T09:26:31.745Z,29.87
2022-08-01T09:29:00.241Z,29.92
2022-08-01T09:31:38.138Z,30.00
2022-08-01T09:34:05.637Z,30.18
2022-08-01T09:37:07.750Z,30.22
2022-08-01T09:39:38.418Z,30.42
2022-08-01T09:42:28.840Z,30.28
2022-08-01T09:44:57.162Z,30.30
2022-08-01T09:47:39.307Z,30.39
2022-08-01T09:50:10.722Z,30.41
2022-08-01T09:52:38.048Z,30.55
2022-08-01T09:55:08.392Z,30.37
2022-08-01T09:57:35.248Z,30.68
2022-08-01T10:00:02.937Z,30.98
2022-08-01T10:02:30.690Z,31.02
2022-08-01T10:05:03.291Z,31.15
2022-08-01T10:07:42.999Z,30.98
2022-08-01T10:10:16.858Z,31.12
2022-08-01T10:12:45.439Z,30.94
2022-08-01T10:15:18.303Z,31.01
2022-08-01T10:17:54.559Z,31.17
2022-08-01T10:20:30.883Z,31.14
2022-08-01T10:23:05.847Z,31.10
2022-08-01T10:25:42.982Z,31.07
2022-08-01T10:28:21.202Z,31.27
2022-08-01T10:30:49.636Z,31.20
2022-08-01T10:33:49.660Z,31.32
2022-08-01T10:36:08.466Z,31.45
2022-08-01T10:38:36.264Z,31.57
2022-08-01T10:41:06.125Z,31.70
2022-08-01T10:43:35.299Z,31.78
2022-08-01T10:46:04.154Z,31.58
2022-08-01T10:48:54.874Z,31.67
2022-08-01T10:51:22.514Z,31.67
2022-08-01T10:54:13.562Z,31.73
2022-08-01T10:56:48.618Z,31.95
2022-08-01T10:59:49.115Z,32.13
2022-08-01T11:02:08.856Z,32.24
2022-08-01T11:04:41.668Z,32.30
2022-08-01T11:07:25.749Z,32.25
2022-08-01T11:10:04.781Z,32.25
2022-08-01T11:12:43.955Z,32.25
2022-08-01T11:15:10.696Z,32.19
2022-08-01T11:17:45.091Z,32.11
2022-08-01T11:20:14.479Z,32.15
2022-08-01T11:22:59.855Z,32.32
2022-08-01T11:26:04.724Z,32.56
2022-08-01T11:28:32.049Z,32.56
2022-08-01T11:31:14.098Z,32.52
2022-08-01T11:33:41.093Z,32.58
2022-08-01T11:36:14.417Z,32.74
2022-08-01T11:38:45.734Z,32.77
2022-08-01T11:41:15.593Z,32.80
2022-08-01T11:44:15.535Z,32.68
2022-08-01T11:47:08.722Z,32.69
2022-08-01T11:49:41.200Z,32.76
2022-08-01T11:52:27.673Z,32.84
2022-08-01T11:55:03.211Z,32.62
2022-08-01T11:57:34.168Z,32.68
2022-08-01T12:00:04.739Z,32.83
2022-08-01T12:02:35.819Z,33.02
2022-08-01T12:05:08.369Z,33.26
2022-08-01T12:07:39.811Z,33.04
2022-08-01T12:10:14.371Z,33.03
2022-08-01T12:12:49.581Z,33.10
2022-08-01T12:15:17.334Z,32.87
2022-08-01T12:17:57.652Z,32.88
2022-08-01T12:20:30.417Z,32.90
2022-08-01T12:22:58.871Z,33.08
2022-08-01T12:25:25.470Z,33.22
2022-08-01T12:27:55.956Z,33.33
2022-08-01T12:30:24.758Z,32.96
2022-08-01T12:32:52.749Z,32.63
2022-08-01T12:35:24.859Z,32.82
2022-08-01T12:38:03.676Z,32.78
2022-08-01T12:40:40.859Z,32.75
2022-08-01T12:43:15.890Z,32.67
2022-08-01T12:45:57.594Z,32.85
2022-08-01T12:48:25.973Z,32.83
2022-08-01T12:50:53.950Z,32.92
2022-08-01T12:53:22.194Z,33.10
2022-08-01T12:55:58.221Z,33.34
2022-08-01T12:58:32.378Z,33.40
2022-08-01T13:01:26.793Z,33.42
2022-08-01T13:04:05.190Z,33.43
2022-08-01T13:06:31.729Z,33.38
2022-08-01T13:09:08.425Z,33.41
2022-08-01T13:11:35.401Z,33.17
2022-08-01T13:14:02.311Z,33.22
2022-08-01T13:16:55.930Z,33.38
2022-08-01T13:19:15.713Z,33.27
2022-08-01T13:21:55.819Z,33.36
2022-08-01T13:24:30.127Z,33.39
2022-08-01T13:27:05.491Z,33.49
2022-08-01T13:29:48.218Z,33.40
2022-08-01T13:32:28.244Z,33.48
2022-08-01T13:35:05.714Z,33.67
2022-08-01T13:37:32.352Z,33.56
2022-08-01T13:39:59.047Z,33.53
2022-08-01T13:42:25.573Z,33.48
2022-08-01T13:44:52.092Z,33.53
2022-08-01T13:47:19.758Z,33.51
2022-08-01T13:50:01.488Z,33.43
2022-08-01T13:52:28.473Z,33.42
2022-08-01T13:54:54.974Z,33.41
2022-08-01T13:57:22.721Z,33.47
2022-08-01T13:59:49.407Z,33.46
2022-08-01T14:02:15.919Z,33.48
2022-08-01T14:04:43.188Z,33.47
2022-08-01T14:07:14.202Z,33.61
2022-08-01T14:09:57.819Z,33.57
2022-08-01T14:12:27.880Z,33.50
2022-08-01T14:14:54.398Z,33.50
2022-08-01T14:17:20.965Z,33.50
2022-08-01T14:19:48.574Z,33.40
2022-08-01T14:22:15.058Z,33.46
2022-08-01T14:24:41.580Z,33.43
2022-08-01T14:27:08.259Z,33.45
2022-08-01T14:29:54.571Z,33.46
2022-08-01T14:32:23.167Z,33.30
2022-08-01T14:34:56.206Z,33.31
2022-08-01T14:37:22.687Z,33.45
2022-08-01T14:39:55.943Z,33.57
2022-08-01T14:42:22.498Z,33.43
2022-08-01T14:44:49.844Z,33.40
2022-08-01T14:47:21.736Z,33.36
2022-08-01T14:49:49.416Z,33.39
2022-08-01T14:52:15.997Z,33.40
2022-08-01T14:54:42.441Z,33.34
2022-08-01T14:57:09.321Z,33.26
2022-08-01T14:59:36.895Z,33.21
2022-08-01T15:02:04.023Z,33.19
2022-08-01T15:04:31.460Z,33.32
2022-08-01T15:06:58.067Z,33.46
2022-08-01T15:09:24.581Z,33.46
2022-08-01T15:11:51.058Z,33.49
2022-08-01T15:14:36.031Z,33.56
2022-08-01T15:17:02.600Z,33.53
2022-08-01T15:19:29.199Z,33.49
2022-08-01T15:21:55.706Z,33.50
2022-08-01T15:24:22.185Z,33.52
2022-08-01T15:26:48.657Z,33.48
2022-08-01T15:29:16.579Z,33.42
2022-08-01T15:31:43.056Z,33.40
2022-08-01T15:34:10.320Z,33.43
2022-08-01T15:36:36.798Z,33.43
2022-08-01T15:39:09.686Z,33.42
2022-08-01T15:41:36.245Z,33.45
2022-08-01T15:44:02.973Z,33.47
2022-08-01T15:46:29.560Z,33.49
2022-08-01T15:48:56.104Z,33.52
2022-08-01T15:51:23.219Z,33.56
2022-08-01T15:53:49.704Z,33.50
2022-08-01T15:56:16.169Z,33.50
2022-08-01T15:58:42.654Z,33.39
2022-08-01T16:01:09.122Z,33.27
2022-08-01T16:03:35.599Z,33.26
2022-08-01T16:06:02.554Z,33.27
2022-08-01T16:08:29.113Z,33.24
2022-08-01T16:10:55.650Z,33.27
2022-08-01T16:13:22.174Z,33.38
2022-08-01T16:15:48.629Z,33.38
2022-08-01T16:18:16.050Z,33.26
2022-08-01T16:20:45.714Z,33.19
2022-08-01T16:23:13.789Z,33.27
2022-08-01T16:25:40.445Z,33.27
2022-08-01T16:28:07.467Z,33.18
2022-08-01T16:30:33.938Z,33.09
2022-08-01T16:33:07.938Z,33.09
2022-08-01T16:35:40.082Z,33.04
2022-08-01T16:38:08.908Z,33.09
2022-08-01T16:40:47.143Z,33.10
2022-08-01T16:43:19.028Z,33.07
2022-08-01T16:45:46.593Z,33.08
2022-08-01T16:48:16.029Z,33.07
2022-08-01T16:50:43.117Z,33.01
2022-08-01T16:53:09.653Z,32.95
2022-08-01T16:55:49.379Z,32.90
2022-08-01T16:58:27.959Z,32.93
2022-08-01T17:00:57.497Z,32.97
2022-08-01T17:03:51.229Z,33.03
2022-08-01T17:06:19.266Z,33.01
2022-08-01T17:08:49.832Z,32.99
2022-08-01T17:11:16.587Z,32.86
2022-08-01T17:13:43.665Z,32.76
2022-08-01T17:16:10.498Z,32.70
2022-08-01T17:18:37.144Z,32.69
2022-08-01T17:21:03.955Z,32.71
2022-08-01T17:23:31.764Z,32.74
2022-08-01T17:25:59.011Z,32.71
2022-08-01T17:28:26.167Z,32.68
2022-08-01T17:30:52.729Z,32.77
2022-08-01T17:33:19.273Z,32.69
2022-08-01T17:35:45.766Z,32.58
2022-08-01T17:38:12.288Z,32.46
2022-08-01T17:40:40.546Z,32.35
2022-08-01T17:43:07.828Z,32.25
2022-08-01T17:45:38.121Z,32.17
2022-08-01T17:48:07.055Z,32.13
2022-08-01T17:50:33.564Z,32.11
2022-08-01T17:53:00.071Z,32.11
2022-08-01T17:55:55.408Z,32.06
2022-08-01T17:58:14.474Z,32.01
2022-08-01T18:00:41.484Z,31.96
2022-08-01T18:03:08.448Z,31.93
2022-08-01T18:05:38.369Z,31.92
2022-08-01T18:08:07.353Z,31.83
2022-08-01T18:10:33.903Z,31.75
2022-08-01T18:13:01.876Z,31.68
2022-08-01T18:15:29.602Z,31.63
2022-08-01T18:17:59.399Z,31.58
2022-08-01T18:20:26.052Z,31.55
2022-08-01T18:22:52.544Z,31.50
2022-08-01T18:25:20.024Z,31.42
2022-08-01T18:28:22.360Z,31.36
2022-08-01T18:30:33.475Z,31.15
2022-08-01T18:33:00.090Z,30.86
2022-08-01T18:35:51.475Z,30.56
2022-08-01T18:38:13.285Z,30.39
2022-08-01T18:40:40.094Z,30.27
2022-08-01T18:43:06.792Z,30.15
2022-08-01T18:45:34.485Z,30.02
2022-08-01T18:48:02.038Z,29.92
2022-08-01T18:50:28.619Z,29.77
2022-08-01T18:52:55.163Z,29.37
2022-08-01T18:55:21.701Z,28.96
2022-08-01T18:57:48.197Z,28.89
2022-08-01T19:00:15.201Z,28.95
2022-08-01T19:02:42.464Z,28.93
2022-08-01T19:05:10.117Z,28.90
2022-08-01T19:08:05.083Z,28.93
2022-08-01T19:10:23.462Z,28.95
2022-08-01T19:12:49.940Z,28.96
2022-08-01T19:15:16.539Z,28.98
2022-08-01T19:17:44.639Z,28.94
2022-08-01T19:20:11.390Z,28.77
2022-08-01T19:22:37.886Z,28.78
2022-08-01T19:25:05.058Z,28.80
2022-08-01T19:27:35.249Z,28.80
2022-08-01T19:30:02.921Z,28.78
2022-08-01T19:32:32.842Z,28.78
2022-08-01T19:35:11.468Z,28.77
2022-08-01T19:37:45.648Z,28.78
2022-08-01T19:40:26.948Z,28.73
2022-08-01T19:42:56.032Z,28.73
2022-08-01T19:45:22.845Z,28.76
2022-08-01T19:47:55.969Z,28.75
2022-08-01T19:50:23.816Z,28.74
2022-08-01T19:52:52.770Z,28.64
2022-08-01T19:55:19.658Z,28.60
2022-08-01T19:57:59.285Z,28.59
2022-08-01T20:00:37.652Z,28.55
2022-08-01T20:03:04.689Z,28.59
2022-08-01T20:05:31.442Z,28.57
2022-08-01T20:07:58.822Z,28.55
2022-08-01T20:10:25.346Z,28.50
2022-08-01T20:12:53.038Z,28.48
2022-08-01T20:15:21.176Z,28.45
2022-08-01T20:17:47.671Z,28.46
2022-08-01T20:20:14.199Z,28.50
2022-08-01T20:22:41.793Z,28.55
2022-08-01T20:25:09.301Z,28.59
2022-08-01T20:27:38.782Z,28.56
2022-08-01T20:30:05.679Z,28.52
2022-08-01T20:32:37.245Z,28.49
2022-08-01T20:35:05.033Z,28.52
2022-08-01T20:38:04.002Z,28.47
2022-08-01T20:40:21.978Z,28.44
2022-08-01T20:42:51.904Z,28.39
2022-08-01T20:45:18.948Z,28.32
2022-08-01T20:47:46.892Z,28.29
2022-08-01T20:50:53.304Z,28.27
2022-08-01T20:53:18.817Z,28.29
2022-08-01T20:55:49.750Z,28.35
2022-08-01T20:58:28.973Z,28.39
2022-08-01T21:01:00.040Z,28.39
2022-08-01T21:03:36.797Z,28.37
2022-08-01T21:06:14.707Z,28.28
2022-08-01T21:08:44.097Z,28.29
2022-08-01T21:11:19.455Z,28.22
2022-08-01T21:13:48.018Z,28.11
2022-08-01T21:16:24.496Z,28.06
2022-08-01T21:19:19.602Z,28.05
2022-08-01T21:22:27.162Z,28.13
2022-08-01T21:24:58.868Z,28.15
2022-08-01T21:27:33.233Z,28.07
2022-08-01T21:30:04.421Z,27.99
2022-08-01T21:32:32.941Z,28.06
2022-08-01T21:35:00.983Z,28.06
2022-08-01T21:37:29.597Z,28.09
2022-08-01T21:39:58.057Z,28.19
2022-08-01T21:42:26.886Z,28.24
2022-08-01T21:44:55.687Z,28.27
2022-08-01T21:47:23.169Z,28.29
2022-08-01T21:49:49.885Z,28.29
2022-08-01T21:52:22.575Z,28.36
2022-08-01T21:55:16.520Z,28.30
2022-08-01T21:58:00.358Z,28.14
2022-08-01T22:00:26.995Z,28.06
2022-08-01T22:03:25.781Z,28.08
2022-08-01T22:05:53.937Z,28.06
2022-08-01T22:08:48.599Z,28.08
2022-08-01T22:11:20.577Z,28.05
2022-08-01T22:13:47.275Z,28.03
2022-08-01T22:16:15.381Z,28.00
2022-08-01T22:18:42.386Z,27.81
2022-08-01T22:21:09.609Z,27.57
2022-08-01T22:23:37.556Z,27.40
2022-08-01T22:26:09.429Z,27.43
2022-08-01T22:28:37.194Z,27.45
2022-08-01T22:31:04.350Z,27.44
2022-08-01T22:33:33.856Z,27.44
2022-08-01T22:36:00.712Z,27.42
2022-08-01T22:38:27.319Z,27.30
2022-08-01T22:41:00.645Z,27.26
2022-08-01T22:43:35.040Z,27.27
2022-08-01T22:46:19.619Z,27.33
2022-08-01T22:48:51.260Z,27.32
2022-08-01T22:51:20.751Z,27.39
2022-08-01T22:53:58.835Z,27.44
2022-08-01T22:56:25.311Z,27.38
2022-08-01T22:58:52.551Z,27.37
2022-08-01T23:01:22.123Z,27.44
2022-08-01T23:03:53.751Z,27.43
2022-08-01T23:06:38.694Z,27.22
2022-08-01T23:09:05.227Z,26.99
2022-08-01T23:11:32.641Z,26.89
2022-08-01T23:14:02.326Z,26.78
2022-08-01T23:16:30.275Z,26.73
2022-08-01T23:18:58.881Z,26.66
2022-08-01T23:21:27.274Z,26.67
2022-08-01T23:23:54.697Z,26.73
2022-08-01T23:26:23.403Z,26.77
2022-08-01T23:28:51.770Z,26.72
2022-08-01T23:31:20.076Z,26.66
2022-08-01T23:33:46.577Z,26.56
2022-08-01T23:36:17.261Z,26.45
2022-08-01T23:38:46.771Z,26.23
2022-08-01T23:41:15.893Z,26.24
2022-08-01T23:43:51.957Z,26.34
2022-08-01T23:46:18.967Z,26.37
2022-08-01T23:48:45.428Z,26.39
2022-08-01T23:51:23.968Z,26.41
2022-08-01T23:53:51.340Z,26.44
2022-08-01T23:56:21.904Z,26.39
2022-08-01T23:58:51.963Z,26.24
